Time;durP1;ratioP1;P1;durP2;ratioP2;P2;SDS_P1;SDS_P2;PMS_P1;PMS_P2;Temp;Humidity;BMP_temperature;BMP_pressure;BME280_temperature;BME280_humidity;BME280_pressure;Samples;Min_cycle;Max_cycle;Signal;HPM_P1;HPM_P2
2023/09/11 00:00:31;;;;;;;3.25;3.05;;;16.40;99.90;;;;;;4190303;28;20056;-57
2023/09/11 00:02:51;;;;;;;5.18;3.47;;;16.50;99.90;;;;;;4191401;28;20052;-57
2023/09/11 00:05:11;;;;;;;3.33;3.03;;;16.50;99.90;;;;;;4191787;28;20044;-57
2023/09/11 00:07:31;;;;;;;2.63;2.42;;;16.60;99.90;;;;;;4195897;28;20043;-57
2023/09/11 00:09:50;;;;;;;2.78;2.67;;;16.60;99.90;;;;;;4193782;28;20063;-57
2023/09/11 00:12:11;;;;;;;3.25;3.15;;;16.50;99.90;;;;;;4191060;28;20047;-57
2023/09/11 00:14:31;;;;;;;3.25;3.15;;;16.30;99.90;;;;;;4194004;28;20051;-57
2023/09/11 00:16:51;;;;;;;2.85;2.75;;;16.30;99.90;;;;;;4193910;28;20048;-57
2023/09/11 00:19:12;;;;;;;3.40;3.15;;;16.20;99.90;;;;;;4192602;28;20056;-57
2023/09/11 00:21:33;;;;;;;3.60;3.50;;;16.20;99.90;;;;;;4192912;28;20136;-57
2023/09/11 00:23:53;;;;;;;3.97;3.67;;;16.20;99.90;;;;;;4192278;28;20296;-57
2023/09/11 00:26:13;;;;;;;4.75;2.60;;;16.20;99.90;;;;;;4191998;28;20154;-57
2023/09/11 00:28:33;;;;;;;2.80;2.70;;;16.20;99.90;;;;;;4190518;28;20075;-57
2023/09/11 00:30:59;;;;;;;3.22;3.13;;;16.20;99.90;;;;;;4189604;28;20044;-57
2023/09/11 00:33:19;;;;;;;3.15;3.05;;;16.20;99.90;;;;;;4193487;28;20108;-57
2023/09/11 00:35:44;;;;;;;3.40;2.95;;;16.10;99.90;;;;;;4192889;28;20079;-57
2023/09/11 00:38:04;;;;;;;3.33;3.13;;;16.10;99.90;;;;;;4196435;28;20083;-57
2023/09/11 00:40:24;;;;;;;3.33;3.13;;;16.10;99.90;;;;;;4194028;28;20335;-57
2023/09/11 00:42:44;;;;;;;4.50;4.20;;;16.10;99.90;;;;;;4191734;28;20060;-58
2023/09/11 00:45:05;;;;;;;4.35;4.10;;;16.00;99.90;;;;;;4194701;28;20051;-57
2023/09/11 00:47:25;;;;;;;3.33;3.13;;;15.80;99.90;;;;;;4191290;28;20051;-58
2023/09/11 00:49:45;;;;;;;3.70;3.55;;;15.70;99.90;;;;;;4188765;28;20047;-57
2023/09/11 00:52:05;;;;;;;2.63;2.53;;;15.70;99.90;;;;;;4190673;28;20070;-57
2023/09/11 00:54:26;;;;;;;3.13;2.92;;;15.70;99.90;;;;;;4191018;28;20263;-57
2023/09/11 00:56:49;;;;;;;2.92;2.72;;;15.60;99.90;;;;;;4190217;28;20051;-57
2023/09/11 00:59:10;;;;;;;7.82;3.72;;;15.60;99.90;;;;;;4191564;28;20072;-57
2023/09/11 01:01:31;;;;;;;3.40;3.20;;;15.50;99.90;;;;;;4189259;28;20048;-56
2023/09/11 01:03:52;;;;;;;3.33;3.17;;;15.50;99.90;;;;;;4191772;28;20269;-56
2023/09/11 01:06:12;;;;;;;3.67;3.50;;;15.50;99.90;;;;;;4191592;28;20036;-57
2023/09/11 01:08:32;;;;;;;2.92;2.70;;;15.50;99.90;;;;;;4191660;28;20239;-57
2023/09/11 01:10:52;;;;;;;3.97;3.88;;;15.40;99.90;;;;;;4192187;28;20078;-57
2023/09/11 01:13:12;;;;;;;3.58;3.47;;;15.50;99.90;;;;;;4190702;28;20086;-57
2023/09/11 01:15:39;;;;;;;3.63;3.53;;;15.50;99.90;;;;;;4192159;28;20428;-56
2023/09/11 01:18:15;;;;;;;3.88;3.78;;;15.40;99.90;;;;;;4189946;28;20363;-57
2023/09/11 01:21:03;;;;;;;3.55;3.45;;;15.50;99.90;;;;;;4190684;28;20056;-57
2023/09/11 01:23:29;;;;;;;3.72;3.53;;;15.40;99.90;;;;;;4189168;28;20055;-56
2023/09/11 01:25:52;;;;;;;3.85;3.75;;;15.20;99.90;;;;;;4190641;28;20044;-57
2023/09/11 01:28:42;;;;;;;2.97;2.83;;;15.20;99.90;;;;;;4192662;28;20095;-57
2023/09/11 01:31:02;;;;;;;3.80;3.70;;;15.10;99.90;;;;;;4192473;28;20079;-57
2023/09/11 01:33:22;;;;;;;3.75;3.42;;;14.90;99.90;;;;;;4193739;28;20091;-57
2023/09/11 01:35:43;;;;;;;3.35;3.25;;;14.80;99.90;;;;;;4192282;28;20071;-56
2023/09/11 01:38:03;;;;;;;4.70;4.60;;;14.70;99.90;;;;;;4192303;28;20044;-57
2023/09/11 01:40:25;;;;;;;3.38;3.28;;;14.60;99.90;;;;;;4192637;28;20442;-57
2023/09/11 01:42:50;;;;;;;3.58;3.47;;;14.60;99.90;;;;;;4190704;28;20060;-57
2023/09/11 01:45:15;;;;;;;3.30;3.20;;;14.50;99.90;;;;;;4190525;28;20051;-57
2023/09/11 01:47:36;;;;;;;4.00;3.90;;;14.70;99.90;;;;;;4189965;28;20079;-57
2023/09/11 01:49:58;;;;;;;3.75;3.65;;;14.80;99.90;;;;;;4192356;28;20135;-57
2023/09/11 01:52:19;;;;;;;4.10;3.97;;;14.80;99.90;;;;;;4190716;28;20079;-56
2023/09/11 01:54:39;;;;;;;3.35;3.25;;;14.90;99.90;;;;;;4190115;28;20098;-57
2023/09/11 01:57:00;;;;;;;4.50;4.25;;;14.70;99.90;;;;;;4194051;28;20367;-57
2023/09/11 01:59:20;;;;;;;4.95;4.57;;;14.80;99.90;;;;;;4191219;28;20078;-56
2023/09/11 02:01:43;;;;;;;3.42;3.33;;;14.90;99.90;;;;;;4191477;28;20043;-56
2023/09/11 02:04:02;;;;;;;4.15;3.90;;;14.90;99.90;;;;;;4192499;28;20072;-56
2023/09/11 02:06:22;;;;;;;3.78;3.67;;;14.90;99.90;;;;;;4190224;28;20048;-57
2023/09/11 02:08:42;;;;;;;4.85;4.55;;;15.00;99.90;;;;;;4190690;28;20048;-57
2023/09/11 02:11:02;;;;;;;11.25;4.63;;;15.00;99.90;;;;;;4190731;28;20044;-57
2023/09/11 02:13:22;;;;;;;4.05;3.95;;;15.00;99.90;;;;;;4189716;28;20044;-57
2023/09/11 02:15:42;;;;;;;4.22;4.13;;;15.00;99.90;;;;;;4191699;28;20244;-57
2023/09/11 02:18:02;;;;;;;4.20;3.83;;;15.00;99.90;;;;;;4190553;28;20079;-57
2023/09/11 02:20:22;;;;;;;8.50;4.50;;;14.80;99.90;;;;;;4189285;28;20090;-57
2023/09/11 02:22:42;;;;;;;4.65;4.25;;;14.70;99.90;;;;;;4188980;28;20043;-57
2023/09/11 02:25:02;;;;;;;4.78;4.68;;;14.60;99.90;;;;;;4188734;28;20043;-57
2023/09/11 02:27:22;;;;;;;4.15;3.88;;;14.40;99.90;;;;;;4190109;28;20231;-57
2023/09/11 02:29:42;;;;;;;5.13;4.93;;;14.20;99.90;;;;;;4189171;28;20056;-56
2023/09/11 02:32:03;;;;;;;4.63;4.53;;;14.10;99.90;;;;;;4190520;28;20055;-56
2023/09/11 02:34:23;;;;;;;4.28;4.15;;;13.90;99.90;;;;;;4191053;28;20044;-57
2023/09/11 02:36:43;;;;;;;4.65;4.55;;;13.90;99.90;;;;;;4190392;28;20103;-57
2023/09/11 02:39:03;;;;;;;5.65;4.75;;;13.90;99.90;;;;;;4190785;28;20048;-57
2023/09/11 02:41:23;;;;;;;4.70;4.28;;;14.00;99.90;;;;;;4191170;28;20394;-57
2023/09/11 02:43:43;;;;;;;4.50;4.40;;;14.20;99.90;;;;;;4190556;28;20055;-57
2023/09/11 02:46:03;;;;;;;5.22;5.13;;;14.20;99.90;;;;;;4190758;28;20105;-56
2023/09/11 02:48:23;;;;;;;4.28;4.18;;;14.10;99.90;;;;;;4190373;28;20105;-57
2023/09/11 02:50:43;;;;;;;4.88;4.78;;;14.00;99.90;;;;;;4189806;28;20372;-57
2023/09/11 02:53:08;;;;;;;4.93;4.82;;;14.20;99.90;;;;;;4189893;28;20044;-57
2023/09/11 02:55:28;;;;;;;5.28;5.07;;;14.40;99.90;;;;;;4188432;28;20406;-57
2023/09/11 02:57:48;;;;;;;4.32;4.22;;;14.40;99.90;;;;;;4191399;28;20055;-57
2023/09/11 03:00:09;;;;;;;4.72;4.35;;;14.50;99.90;;;;;;4190110;28;20043;-56
2023/09/11 03:02:29;;;;;;;5.47;5.28;;;14.50;99.90;;;;;;4189332;28;20429;-57
2023/09/11 03:04:50;;;;;;;4.93;4.47;;;14.40;99.90;;;;;;4190294;28;20056;-57
2023/09/11 03:07:10;;;;;;;5.25;5.03;;;14.40;99.90;;;;;;4191503;28;20043;-56
2023/09/11 03:09:30;;;;;;;4.72;4.63;;;14.40;99.90;;;;;;4190807;28;20402;-56
2023/09/11 03:11:50;;;;;;;4.93;4.72;;;14.40;99.90;;;;;;4191413;28;20044;-57
2023/09/11 03:14:11;;;;;;;4.70;4.50;;;14.20;99.90;;;;;;4189597;28;20105;-56
2023/09/11 03:16:31;;;;;;;5.20;5.10;;;14.20;99.90;;;;;;4190461;28;20039;-57
2023/09/11 03:18:52;;;;;;;4.57;4.47;;;14.20;99.90;;;;;;4189833;28;20055;-57
2023/09/11 03:21:12;;;;;;;4.60;4.50;;;14.30;99.90;;;;;;4189302;28;20143;-56
2023/09/11 03:23:32;;;;;;;4.10;4.00;;;14.30;99.90;;;;;;4190007;28;20094;-57
2023/09/11 03:25:51;;;;;;;5.38;5.22;;;14.10;99.90;;;;;;4189384;28;20044;-57
2023/09/11 03:28:11;;;;;;;4.68;4.57;;;13.90;99.90;;;;;;4189539;28;20052;-57
2023/09/11 03:30:31;;;;;;;4.15;3.95;;;13.90;99.90;;;;;;4188454;28;20044;-57
2023/09/11 03:32:51;;;;;;;5.25;5.15;;;14.00;99.90;;;;;;4194166;28;20051;-56
2023/09/11 03:35:11;;;;;;;4.47;4.28;;;14.00;99.90;;;;;;4193318;28;20369;-56
2023/09/11 03:37:31;;;;;;;4.47;4.22;;;13.80;99.90;;;;;;4192579;28;20091;-56
2023/09/11 03:39:52;;;;;;;4.45;4.15;;;13.70;99.90;;;;;;4194676;28;20398;-57
2023/09/11 03:42:11;;;;;;;5.80;5.20;;;13.80;99.90;;;;;;4193064;28;20051;-56
2023/09/11 03:44:31;;;;;;;5.32;5.03;;;14.00;99.90;;;;;;4192035;28;20236;-57
2023/09/11 03:46:52;;;;;;;4.63;4.43;;;13.80;99.90;;;;;;4191895;28;20355;-56
2023/09/11 03:49:12;;;;;;;4.40;4.20;;;13.60;99.90;;;;;;4191525;28;20410;-56
2023/09/11 03:51:31;;;;;;;5.40;5.05;;;13.40;99.90;;;;;;4191643;28;20039;-56
2023/09/11 03:53:51;;;;;;;9.10;4.53;;;13.30;99.90;;;;;;4190830;28;20071;-56
2023/09/11 03:56:15;;;;;;;5.15;4.95;;;13.20;99.90;;;;;;4191952;28;20087;-56
2023/09/11 03:58:34;;;;;;;4.90;4.45;;;13.40;99.90;;;;;;4190206;28;20040;-56
2023/09/11 04:00:54;;;;;;;5.00;4.68;;;13.50;99.90;;;;;;4192264;28;20087;-56
2023/09/11 04:03:15;;;;;;;4.15;4.05;;;13.60;99.90;;;;;;4191676;28;20068;-57
2023/09/11 04:05:35;;;;;;;4.13;4.03;;;13.50;99.90;;;;;;4192945;28;20102;-57
2023/09/11 04:07:55;;;;;;;4.22;4.13;;;13.50;99.90;;;;;;4192430;28;20060;-56
2023/09/11 04:10:15;;;;;;;5.85;5.38;;;13.50;99.90;;;;;;4193225;28;20085;-56
2023/09/11 04:12:35;;;;;;;5.75;5.45;;;13.60;99.90;;;;;;4191654;28;20043;-57
2023/09/11 04:14:55;;;;;;;5.93;5.72;;;13.60;99.90;;;;;;4192696;28;20047;-57
2023/09/11 04:17:15;;;;;;;5.43;4.72;;;13.60;99.90;;;;;;4192329;28;20048;-57
2023/09/11 04:19:35;;;;;;;5.68;5.57;;;13.60;99.90;;;;;;4190476;28;20051;-57
2023/09/11 04:21:55;;;;;;;4.80;4.70;;;13.50;99.90;;;;;;4192311;28;20044;-56
2023/09/11 04:24:15;;;;;;;4.63;4.53;;;13.40;99.90;;;;;;4192889;28;20056;-56
2023/09/11 04:26:34;;;;;;;5.82;5.72;;;13.30;99.90;;;;;;4193572;28;20090;-56
2023/09/11 04:28:55;;;;;;;4.88;4.78;;;13.20;99.90;;;;;;4194743;28;20067;-57
2023/09/11 04:31:15;;;;;;;4.82;4.60;;;13.10;99.90;;;;;;4192652;28;20152;-57
2023/09/11 04:33:35;;;;;;;5.70;5.53;;;13.10;99.90;;;;;;4193298;28;20051;-57
2023/09/11 04:35:55;;;;;;;5.53;5.43;;;13.20;99.90;;;;;;4194128;28;20039;-57
2023/09/11 04:38:15;;;;;;;5.55;5.15;;;13.20;99.90;;;;;;4191067;28;20076;-56
2023/09/11 04:40:35;;;;;;;5.13;4.82;;;13.20;99.90;;;;;;4192366;28;20101;-56
2023/09/11 04:42:55;;;;;;;4.63;4.47;;;13.40;99.90;;;;;;4191795;28;20093;-57
2023/09/11 04:45:16;;;;;;;6.65;5.40;;;13.30;99.90;;;;;;4191023;28;20047;-56
2023/09/11 04:47:36;;;;;;;4.95;4.85;;;13.30;99.90;;;;;;4188669;28;20405;-57
2023/09/11 04:49:56;;;;;;;5.07;4.88;;;13.30;99.90;;;;;;4191450;28;20052;-56
2023/09/11 04:52:16;;;;;;;5.82;5.72;;;13.30;99.90;;;;;;4195990;28;20044;-57
2023/09/11 04:54:36;;;;;;;5.97;5.78;;;13.20;99.90;;;;;;4193848;28;20101;-57
2023/09/11 04:56:57;;;;;;;6.70;6.43;;;13.30;99.90;;;;;;4192217;28;20398;-57
2023/09/11 04:59:16;;;;;;;5.47;5.28;;;13.30;99.90;;;;;;4194746;28;20051;-56
2023/09/11 05:01:36;;;;;;;5.40;5.03;;;13.10;99.90;;;;;;4191588;28;20055;-56
2023/09/11 05:03:56;;;;;;;5.15;5.05;;;13.00;99.90;;;;;;4193113;28;20126;-56
2023/09/11 05:06:16;;;;;;;6.18;5.63;;;13.00;99.90;;;;;;4191745;28;20094;-56
2023/09/11 05:08:37;;;;;;;5.55;5.30;;;12.90;99.90;;;;;;4191110;28;20044;-56
2023/09/11 05:11:16;;;;;;;5.70;5.60;;;12.90;99.90;;;;;;4190798;28;20083;-56
2023/09/11 05:13:37;;;;;;;5.82;5.70;;;13.00;99.90;;;;;;4191819;28;20043;-56
2023/09/11 05:15:57;;;;;;;5.72;5.63;;;13.10;99.90;;;;;;4189983;28;20044;-57
2023/09/11 05:18:17;;;;;;;6.03;5.63;;;13.10;99.90;;;;;;4189589;28;20079;-56
2023/09/11 05:20:37;;;;;;;5.68;5.57;;;13.00;99.90;;;;;;4190696;28;20108;-56
2023/09/11 05:22:57;;;;;;;5.28;5.18;;;13.00;99.90;;;;;;4190754;28;20048;-60
2023/09/11 05:25:17;;;;;;;12.60;8.40;;;13.10;99.90;;;;;;4191007;28;20091;-57
2023/09/11 05:27:37;;;;;;;6.97;6.60;;;13.10;99.90;;;;;;4191350;28;20055;-58
2023/09/11 05:29:57;;;;;;;4.78;4.57;;;13.20;99.90;;;;;;4194789;28;20098;-58
2023/09/11 05:32:18;;;;;;;5.07;4.97;;;13.20;99.90;;;;;;4191403;28;20064;-57
2023/09/11 05:34:38;;;;;;;5.68;5.47;;;13.00;99.90;;;;;;4191382;28;20043;-58
2023/09/11 05:36:58;;;;;;;7.30;6.47;;;13.00;99.90;;;;;;4190178;28;20068;-57
2023/09/11 05:39:18;;;;;;;6.13;5.93;;;13.00;99.90;;;;;;4191046;28;20324;-57
2023/09/11 05:41:38;;;;;;;5.03;4.93;;;13.00;99.90;;;;;;4191565;28;20091;-57
2023/09/11 05:43:58;;;;;;;5.45;5.25;;;13.10;99.90;;;;;;4189640;28;20063;-57
2023/09/11 05:46:18;;;;;;;7.68;6.95;;;13.20;99.90;;;;;;4191600;28;20078;-58
2023/09/11 05:48:38;;;;;;;6.32;6.00;;;13.10;99.90;;;;;;4191923;28;20044;-58
2023/09/11 05:50:58;;;;;;;7.65;7.35;;;13.10;99.90;;;;;;4192166;28;20099;-58
2023/09/11 05:53:18;;;;;;;7.30;6.88;;;13.30;99.90;;;;;;4192315;28;20248;-58
2023/09/11 05:55:39;;;;;;;5.85;5.75;;;13.40;99.90;;;;;;4192416;28;20115;-57
2023/09/11 05:58:02;;;;;;;7.78;7.35;;;13.40;99.90;;;;;;4189975;28;20056;-57
2023/09/11 06:00:24;;;;;;;32.53;7.88;;;13.40;99.90;;;;;;4190425;28;20095;-58
2023/09/11 06:02:46;;;;;;;7.68;7.00;;;13.40;99.90;;;;;;4191457;28;20240;-58
2023/09/11 06:05:07;;;;;;;5.90;5.30;;;13.50;99.90;;;;;;4191304;28;20051;-58
2023/09/11 06:07:27;;;;;;;15.73;6.72;;;13.50;99.90;;;;;;4191603;28;20404;-58
2023/09/11 06:09:47;;;;;;;12.98;6.38;;;13.60;99.90;;;;;;4189594;28;20091;-58
2023/09/11 06:12:08;;;;;;;8.13;5.55;;;13.70;99.90;;;;;;4189177;28;20311;-58
2023/09/11 06:14:27;;;;;;;5.93;5.55;;;13.80;99.90;;;;;;4189879;28;20048;-57
2023/09/11 06:16:47;;;;;;;5.63;4.38;;;13.90;99.90;;;;;;4192491;28;20262;-58
2023/09/11 06:19:08;;;;;;;6.95;5.85;;;13.90;99.90;;;;;;4192670;28;20055;-57
2023/09/11 06:21:28;;;;;;;12.02;6.40;;;14.10;99.90;;;;;;4190564;28;20359;-58
2023/09/11 06:23:48;;;;;;;6.15;5.93;;;14.20;99.90;;;;;;4189130;28;20056;-58
2023/09/11 06:26:08;;;;;;;5.95;5.47;;;14.30;99.90;;;;;;4190136;28;20067;-58
2023/09/11 06:28:28;;;;;;;5.90;5.53;;;14.40;99.90;;;;;;4191049;28;20086;-58
2023/09/11 06:30:48;;;;;;;5.90;5.60;;;14.50;99.90;;;;;;4191941;28;20078;-58
2023/09/11 06:33:08;;;;;;;5.60;5.20;;;14.60;99.90;;;;;;4192184;28;20056;-58
2023/09/11 06:35:28;;;;;;;5.05;4.75;;;14.70;99.90;;;;;;4190631;28;20052;-58
2023/09/11 06:37:48;;;;;;;4.97;4.63;;;14.80;99.90;;;;;;4176054;28;20240;-58
2023/09/11 06:40:10;;;;;;;5.32;5.03;;;14.90;99.90;;;;;;4189962;28;20051;-58
2023/09/11 06:42:30;;;;;;;6.90;6.40;;;15.00;99.90;;;;;;4189780;28;20126;-58
2023/09/11 06:44:51;;;;;;;6.03;5.50;;;15.10;99.90;;;;;;4189964;28;20068;-58
2023/09/11 06:47:12;;;;;;;6.10;5.88;;;15.20;99.90;;;;;;4190936;28;20040;-58
2023/09/11 06:49:32;;;;;;;4.85;4.72;;;15.30;99.90;;;;;;4188932;28;20109;-58
2023/09/11 06:51:52;;;;;;;4.53;4.43;;;15.30;99.90;;;;;;4189620;28;20101;-58
2023/09/11 06:54:12;;;;;;;5.30;5.20;;;15.40;99.90;;;;;;4188527;28;20075;-58
2023/09/11 06:56:32;;;;;;;5.10;4.90;;;15.60;99.90;;;;;;4189824;28;20116;-58
2023/09/11 06:58:52;;;;;;;4.90;4.70;;;15.70;99.90;;;;;;4189713;28;20112;-58
2023/09/11 07:01:13;;;;;;;5.00;4.70;;;15.90;99.90;;;;;;4189813;28;20433;-58
2023/09/11 07:03:33;;;;;;;5.20;4.72;;;16.00;99.90;;;;;;4189433;28;20064;-58
2023/09/11 07:05:53;;;;;;;4.38;4.10;;;16.10;99.90;;;;;;4190498;28;20044;-58
2023/09/11 07:08:13;;;;;;;4.80;4.57;;;16.30;99.90;;;;;;4189190;28;20378;-58
2023/09/11 07:10:34;;;;;;;5.50;4.70;;;16.40;99.90;;;;;;4188124;28;20122;-58
2023/09/11 07:13:01;;;;;;;6.18;4.35;;;16.50;99.90;;;;;;4193121;28;20043;-58
2023/09/11 07:15:21;;;;;;;3.92;3.83;;;16.70;99.90;;;;;;4193010;28;20105;-58
2023/09/11 07:17:41;;;;;;;4.45;3.88;;;16.90;99.90;;;;;;4192463;28;20076;-58
2023/09/11 07:20:04;;;;;;;8.10;4.30;;;17.10;99.90;;;;;;4193232;28;20108;-58
2023/09/11 07:22:24;;;;;;;5.57;5.00;;;17.20;99.90;;;;;;4193333;28;20386;-58
2023/09/11 07:24:44;;;;;;;4.65;4.35;;;17.30;99.90;;;;;;4193868;28;20123;-58
2023/09/11 07:27:05;;;;;;;4.93;3.67;;;17.50;99.90;;;;;;4193857;28;20048;-58
2023/09/11 07:29:26;;;;;;;8.23;3.78;;;17.70;99.90;;;;;;4194852;28;20067;-57
2023/09/11 07:31:46;;;;;;;5.85;3.63;;;17.90;99.90;;;;;;4194677;28;20036;-58
2023/09/11 07:34:07;;;;;;;4.18;3.72;;;18.10;99.90;;;;;;4191804;28;20394;-58
2023/09/11 07:36:28;;;;;;;7.57;4.32;;;18.30;99.90;;;;;;4192970;28;20044;-57
2023/09/11 07:38:48;;;;;;;3.28;3.03;;;18.40;99.90;;;;;;4192167;28;20391;-58
2023/09/11 07:41:07;;;;;;;10.32;3.50;;;18.60;99.90;;;;;;4192374;28;20374;-58
2023/09/11 07:43:27;;;;;;;3.97;2.95;;;18.70;99.90;;;;;;4192018;28;20315;-58
2023/09/11 07:45:47;;;;;;;3.00;2.90;;;18.90;99.90;;;;;;4192049;28;20048;-58
2023/09/11 07:48:07;;;;;;;3.42;3.28;;;19.10;99.90;;;;;;4195638;28;20327;-58
2023/09/11 07:50:28;;;;;;;6.25;3.40;;;19.30;99.90;;;;;;4192489;28;20064;-58
2023/09/11 07:52:49;;;;;;;2.65;2.47;;;19.50;99.90;;;;;;4195905;28;20036;-58
2023/09/11 07:55:09;;;;;;;2.90;2.65;;;19.60;99.90;;;;;;4195616;28;20105;-58
2023/09/11 07:57:30;;;;;;;4.95;3.20;;;19.80;99.90;;;;;;4190911;28;20087;-58
2023/09/11 07:59:50;;;;;;;2.20;2.10;;;19.90;99.90;;;;;;4189454;28;20077;-58
2023/09/11 08:02:10;;;;;;;2.72;2.60;;;20.00;99.90;;;;;;4194820;28;20051;-58
2023/09/11 08:04:30;;;;;;;2.10;1.65;;;20.10;99.90;;;;;;4191778;28;20079;-58
2023/09/11 08:06:50;;;;;;;1.63;1.52;;;20.40;99.90;;;;;;4190969;28;20303;-58
2023/09/11 08:09:10;;;;;;;2.70;2.50;;;20.50;99.90;;;;;;4191556;28;20052;-58
2023/09/11 08:11:34;;;;;;;2.35;1.98;;;20.60;99.90;;;;;;4189555;28;20076;-58
2023/09/11 08:13:54;;;;;;;3.53;3.22;;;20.70;99.90;;;;;;4190333;28;20071;-58
2023/09/11 08:16:16;;;;;;;2.92;2.72;;;20.90;99.90;;;;;;4194850;28;20223;-58
2023/09/11 08:18:36;;;;;;;7.15;2.78;;;21.20;99.90;;;;;;4201433;28;20051;-58
2023/09/11 08:20:56;;;;;;;2.28;2.05;;;21.30;99.90;;;;;;4194088;28;20039;-58
2023/09/11 08:23:18;;;;;;;2.03;1.92;;;21.50;99.90;;;;;;4190733;28;20098;-58
2023/09/11 08:25:38;;;;;;;8.40;3.17;;;21.60;99.90;;;;;;4188899;28;20082;-58
2023/09/11 08:27:58;;;;;;;4.05;2.05;;;21.90;99.90;;;;;;4192684;28;20056;-58
2023/09/11 08:30:18;;;;;;;5.22;1.88;;;22.10;99.20;;;;;;4189526;28;20094;-58
2023/09/11 08:32:38;;;;;;;2.40;1.88;;;22.10;98.70;;;;;;4190198;28;20151;-58
2023/09/11 08:34:59;;;;;;;2.88;2.28;;;22.30;98.60;;;;;;4190872;28;20043;-58
2023/09/11 08:37:19;;;;;;;5.88;1.52;;;22.40;98.70;;;;;;4190005;28;20233;-58
2023/09/11 08:39:39;;;;;;;5.18;2.00;;;22.60;99.30;;;;;;4189993;28;20087;-59
2023/09/11 08:42:00;;;;;;;1.60;1.50;;;22.70;97.20;;;;;;4188306;28;20048;-59
2023/09/11 08:44:21;;;;;;;4.10;1.93;;;22.90;97.70;;;;;;4190550;28;20047;-58
2023/09/11 08:46:45;;;;;;;4.63;1.77;;;23.20;97.00;;;;;;4192815;28;20273;-58
2023/09/11 08:49:07;;;;;;;5.28;1.70;;;23.50;97.70;;;;;;4197869;28;20110;-58
2023/09/11 08:51:50;;;;;;;2.97;2.25;;;23.90;97.10;;;;;;4193845;28;20047;-59
2023/09/11 08:54:11;;;;;;;1.75;1.10;;;24.30;96.50;;;;;;4189983;28;20147;-59
2023/09/11 08:56:31;;;;;;;2.05;1.20;;;24.80;95.80;;;;;;4191775;28;20079;-59
2023/09/11 08:58:52;;;;;;;2.40;1.20;;;25.20;95.20;;;;;;4190980;28;20120;-59
2023/09/11 09:01:13;;;;;;;1.50;1.20;;;25.20;94.80;;;;;;4189997;28;20067;-58
2023/09/11 09:03:34;;;;;;;3.40;1.10;;;25.00;95.20;;;;;;4189697;28;20233;-59
2023/09/11 09:05:56;;;;;;;1.80;1.30;;;25.10;94.00;;;;;;4190615;28;20055;-59
2023/09/11 09:08:19;;;;;;;2.85;1.10;;;25.40;94.50;;;;;;4189536;28;20363;-59
2023/09/11 09:10:40;;;;;;;1.00;1.00;;;25.80;93.20;;;;;;4188939;28;20090;-59
2023/09/11 09:13:00;;;;;;;6.35;1.00;;;26.10;92.90;;;;;;4198812;28;20098;-59
2023/09/11 09:15:21;;;;;;;4.35;1.10;;;26.30;91.90;;;;;;4194792;28;20043;-59
2023/09/11 09:17:41;;;;;;;5.95;1.50;;;26.50;93.00;;;;;;4193118;28;20056;-59
2023/09/11 09:20:03;;;;;;;3.20;1.00;;;26.60;92.40;;;;;;4189434;28;20063;-59
2023/09/11 09:22:23;;;;;;;1.15;1.13;;;26.40;91.50;;;;;;4192063;28;20068;-59
2023/09/11 09:24:52;;;;;;;2.83;0.90;;;26.70;91.30;;;;;;4189118;28;20044;-59
2023/09/11 09:27:12;;;;;;;2.45;1.00;;;26.90;88.90;;;;;;4188657;28;20267;-59
2023/09/11 09:29:37;;;;;;;4.13;1.10;;;27.10;90.50;;;;;;4193122;28;20244;-59
2023/09/11 09:32:03;;;;;;;1.10;1.00;;;27.40;90.60;;;;;;4192548;28;20143;-59
2023/09/11 09:34:23;;;;;;;3.55;1.00;;;27.60;90.10;;;;;;4189892;28;20133;-59
2023/09/11 09:36:54;;;;;;;1.05;0.90;;;28.00;88.70;;;;;;4192064;28;20078;-59
2023/09/11 09:39:14;;;;;;;2.58;0.95;;;28.10;84.90;;;;;;4187968;28;20378;-59
2023/09/11 09:41:34;;;;;;;0.88;0.88;;;28.20;87.50;;;;;;4192918;28;20079;-59
2023/09/11 09:43:54;;;;;;;1.50;0.90;;;28.40;84.30;;;;;;4193732;28;20102;-59
2023/09/11 09:46:19;;;;;;;1.08;0.90;;;28.50;81.10;;;;;;4189384;28;20039;-60
2023/09/11 09:48:39;;;;;;;1.00;1.00;;;28.60;77.40;;;;;;4189186;28;20052;-59
2023/09/11 09:51:02;;;;;;;0.90;0.80;;;28.90;79.60;;;;;;4189609;28;20227;-59
2023/09/11 09:53:24;;;;;;;1.30;0.90;;;29.00;73.60;;;;;;4193037;28;20301;-59
2023/09/11 09:55:44;;;;;;;1.70;0.80;;;29.00;74.70;;;;;;4189498;28;20248;-59
2023/09/11 09:58:04;;;;;;;0.75;0.75;;;29.40;79.60;;;;;;4188564;28;20048;-60
2023/09/11 10:00:24;;;;;;;1.63;0.80;;;29.60;72.30;;;;;;4192517;28;20074;-59
2023/09/11 10:02:44;;;;;;;0.70;0.70;;;29.40;73.50;;;;;;4190727;28;20040;-60
2023/09/11 10:05:07;;;;;;;1.02;0.80;;;29.60;76.20;;;;;;4189410;28;20067;-60
2023/09/11 10:07:42;;;;;;;0.95;0.80;;;29.90;72.20;;;;;;4189282;28;20275;-60
2023/09/11 10:10:41;;;;;;;1.40;0.60;;;29.70;72.10;;;;;;4189068;28;20108;-60
2023/09/11 10:13:03;;;;;;;2.35;0.80;;;29.80;69.90;;;;;;4125017;28;20057;-60
2023/09/11 10:15:24;;;;;;;0.80;0.80;;;30.00;69.40;;;;;;4127819;28;20083;-60
2023/09/11 10:17:44;;;;;;;2.65;0.90;;;29.80;66.30;;;;;;4127396;28;20081;-59
2023/09/11 10:20:05;;;;;;;0.80;0.80;;;30.10;69.20;;;;;;4121157;28;20069;-59
2023/09/11 10:22:25;;;;;;;0.73;0.73;;;30.20;69.60;;;;;;4122525;28;20045;-60
2023/09/11 10:24:45;;;;;;;1.90;0.70;;;30.30;67.10;;;;;;4127205;28;20246;-60
2023/09/11 10:27:06;;;;;;;0.73;0.73;;;29.80;65.10;;;;;;4124217;28;20153;-60
2023/09/11 10:29:49;;;;;;;0.73;0.63;;;30.20;67.20;;;;;;4123730;28;20254;-59
2023/09/11 10:32:19;;;;;;;0.60;0.60;;;30.50;66.40;;;;;;4127673;28;20042;-60
2023/09/11 10:34:39;;;;;;;0.70;0.70;;;30.60;64.10;;;;;;4124743;28;20057;-59
2023/09/11 10:36:59;;;;;;;0.70;0.70;;;30.80;63.70;;;;;;4122788;28;20053;-60
2023/09/11 10:39:23;;;;;;;0.70;0.70;;;30.40;63.60;;;;;;4124325;28;20049;-60
2023/09/11 10:41:43;;;;;;;1.60;0.70;;;30.30;64.20;;;;;;4123298;28;20388;-60
2023/09/11 10:44:03;;;;;;;0.80;0.80;;;30.00;66.70;;;;;;4167917;28;20071;-59
2023/09/11 10:46:23;;;;;;;0.70;0.70;;;29.90;65.10;;;;;;4188232;28;20279;-59
2023/09/11 10:48:44;;;;;;;1.15;0.75;;;29.80;65.60;;;;;;4188915;28;20240;-59
2023/09/11 10:51:05;;;;;;;0.70;0.70;;;30.20;64.10;;;;;;4188193;28;20091;-59
2023/09/11 10:53:29;;;;;;;1.77;0.70;;;30.20;64.70;;;;;;4191069;28;20108;-59
2023/09/11 10:55:49;;;;;;;3.40;0.80;;;30.20;66.30;;;;;;4191665;28;20063;-59
2023/09/11 10:58:09;;;;;;;0.65;0.65;;;30.50;65.30;;;;;;4191914;28;20048;-60
2023/09/11 11:00:30;;;;;;;0.80;0.80;;;30.30;66.20;;;;;;4189741;28;20081;-60
2023/09/11 11:02:52;;;;;;;0.70;0.70;;;30.60;65.30;;;;;;4189041;28;20078;-60
2023/09/11 11:05:15;;;;;;;;;;;30.90;65.40;;;;;;4191482;28;20060;-60
2023/09/11 11:07:36;;;;;;;1.50;0.70;;;31.30;64.80;;;;;;4188545;28;19933;-60
2023/09/11 11:10:01;;;;;;;0.80;0.80;;;31.20;63.10;;;;;;4188404;28;20113;-60
2023/09/11 11:12:32;;;;;;;0.63;0.63;;;30.90;63.00;;;;;;4195462;28;20047;-60
2023/09/11 11:15:21;;;;;;;0.80;0.80;;;30.90;62.90;;;;;;4187932;28;20043;-60
2023/09/11 11:17:41;;;;;;;0.90;0.70;;;31.20;64.50;;;;;;4184797;28;20394;-60
2023/09/11 11:20:06;;;;;;;0.60;0.60;;;30.90;63.30;;;;;;4195446;28;20062;-59
2023/09/11 11:22:31;;;;;;;0.60;0.60;;;30.30;62.10;;;;;;4191646;28;20098;-59
2023/09/11 11:24:57;;;;;;;2.40;1.45;;;30.50;62.50;;;;;;4188571;28;20051;-59
2023/09/11 11:27:17;;;;;;;0.70;0.70;;;30.80;62.90;;;;;;4187849;28;20241;-60
2023/09/11 11:29:37;;;;;;;0.68;0.68;;;30.60;64.10;;;;;;4189326;28;20102;-60
2023/09/11 11:31:58;;;;;;;1.35;0.70;;;30.60;60.70;;;;;;4188342;28;20082;-60
2023/09/11 11:34:22;;;;;;;0.60;0.60;;;31.30;64.70;;;;;;4189307;28;20040;-60
2023/09/11 11:36:44;;;;;;;1.25;0.90;;;31.00;61.70;;;;;;4187178;28;20056;-60
2023/09/11 11:39:04;;;;;;;1.15;0.70;;;31.60;65.20;;;;;;4188458;28;20064;-59
2023/09/11 11:41:24;;;;;;;5.55;0.70;;;32.20;61.70;;;;;;4188957;28;20063;-59
2023/09/11 11:43:45;;;;;;;1.42;0.70;;;31.80;60.60;;;;;;4196741;28;20315;-60
2023/09/11 11:46:08;;;;;;;1.30;0.68;;;31.80;62.10;;;;;;4188089;28;20067;-60
2023/09/11 11:48:28;;;;;;;1.90;0.70;;;31.60;62.30;;;;;;4191431;28;20115;-59
2023/09/11 11:50:49;;;;;;;3.15;0.70;;;31.80;60.80;;;;;;4186850;28;20163;-60
2023/09/11 11:53:17;;;;;;;0.70;0.70;;;31.70;60.70;;;;;;4190709;28;20048;-59
2023/09/11 11:55:39;;;;;;;0.68;0.68;;;31.70;57.40;;;;;;4187391;28;20075;-59
2023/09/11 11:57:59;;;;;;;0.70;0.70;;;31.40;60.40;;;;;;4190877;28;20113;-59
2023/09/11 12:00:20;;;;;;;0.60;0.60;;;31.80;62.00;;;;;;4192701;28;20047;-59
2023/09/11 12:02:39;;;;;;;0.60;0.60;;;31.50;56.10;;;;;;4201609;28;20048;-60
2023/09/11 12:05:00;;;;;;;0.60;0.60;;;31.10;57.20;;;;;;4191344;28;20106;-59
2023/09/11 12:07:22;;;;;;;0.60;0.60;;;31.30;57.40;;;;;;4201532;28;20088;-59
2023/09/11 12:09:42;;;;;;;0.70;0.70;;;31.20;57.80;;;;;;4199333;28;20102;-59
2023/09/11 12:12:05;;;;;;;1.48;0.60;;;31.40;54.70;;;;;;4192708;28;20051;-59
2023/09/11 12:14:26;;;;;;;0.60;0.60;;;31.80;57.00;;;;;;4190518;28;20047;-59
2023/09/11 12:16:46;;;;;;;1.50;0.60;;;31.40;56.00;;;;;;4193365;28;20120;-59